Time;durP1;ratioP1;P1;durP2;ratioP2;P2;SDS_P1;SDS_P2;PMS_P1;PMS_P2;Temp;Humidity;BMP_temperature;BMP_pressure;BME280_temperature;BME280_humidity;BME280_pressure;Samples;Min_cycle;Max_cycle;Signal;HPM_P1;HPM_P2
2023/12/18 00:01:42;;;;;;;;;;;2.00;99.90;;;;;;5063368;28;19995;-77
2023/12/18 00:04:10;;;;;;;;;;;1.90;99.90;;;;;;5066971;28;19986;-75
2023/12/18 00:06:37;;;;;;;;;;;1.90;99.90;;;;;;5066807;28;19998;-76
2023/12/18 00:09:04;;;;;;;;;;;2.00;99.90;;;;;;5067292;28;19992;-76
2023/12/18 00:11:31;;;;;;;;;;;2.00;99.90;;;;;;5065781;28;19982;-76
2023/12/18 00:13:57;;;;;;;;;;;1.90;99.90;;;;;;5064346;28;19982;-75
2023/12/18 00:16:24;;;;;;;;;;;2.00;99.90;;;;;;5068460;28;19995;-76
2023/12/18 00:18:50;;;;;;;;;;;2.00;99.90;;;;;;5063905;28;19991;-76
2023/12/18 00:21:17;;;;;;;;;;;2.00;99.90;;;;;;5065550;28;19987;-76
2023/12/18 00:23:45;;;;;;;;;;;2.00;99.90;;;;;;5063124;28;20489;-76
2023/12/18 00:26:11;;;;;;;;;;;2.00;99.90;;;;;;5065477;28;20002;-75
2023/12/18 00:28:38;;;;;;;;;;;2.00;99.90;;;;;;5066969;28;19995;-75
2023/12/18 00:31:04;;;;;;;;;;;2.00;99.90;;;;;;5069019;28;19994;-76
2023/12/18 00:33:31;;;;;;;;;;;1.90;99.90;;;;;;5066228;28;19979;-76
2023/12/18 00:35:57;;;;;;;;;;;2.00;99.90;;;;;;5065118;28;19986;-76
2023/12/18 00:38:24;;;;;;;;;;;2.00;99.90;;;;;;5060886;28;20002;-75
2023/12/18 00:40:52;;;;;;;;;;;2.00;99.90;;;;;;5065303;28;19986;-76
2023/12/18 00:43:18;;;;;;;;;;;2.00;99.90;;;;;;5067726;28;19979;-76
2023/12/18 00:45:45;;;;;;;;;;;1.90;99.90;;;;;;5061260;28;19995;-75
2023/12/18 00:48:11;;;;;;;;;;;2.00;99.90;;;;;;5065885;28;20654;-76
2023/12/18 00:50:38;;;;;;;;;;;1.90;99.90;;;;;;5063865;28;19984;-76
2023/12/18 00:53:04;;;;;;;;;;;2.00;99.90;;;;;;5064672;28;19975;-76
2023/12/18 00:55:31;;;;;;;;;;;2.00;99.90;;;;;;5064576;28;19988;-76
2023/12/18 00:57:59;;;;;;;;;;;1.90;99.90;;;;;;5065311;28;20064;-75
2023/12/18 01:00:25;;;;;;;;;;;2.00;99.90;;;;;;5061459;28;20369;-75
2023/12/18 01:02:52;;;;;;;;;;;2.00;99.90;;;;;;5065294;28;19979;-77
2023/12/18 01:05:19;;;;;;;;;;;2.00;99.90;;;;;;5065890;28;20536;-75
2023/12/18 01:07:45;;;;;;;;;;;2.00;99.90;;;;;;5063646;28;20095;-75
2023/12/18 01:10:12;;;;;;;;;;;1.90;99.90;;;;;;5062731;28;20012;-76
2023/12/18 01:12:39;;;;;;;;;;;1.90;99.90;;;;;;5063305;28;19982;-75
2023/12/18 01:15:07;;;;;;;;;;;1.90;99.90;;;;;;5065305;28;20033;-75
2023/12/18 01:17:33;;;;;;;;;;;1.90;99.90;;;;;;5063345;28;19975;-75
2023/12/18 01:20:00;;;;;;;;;;;1.90;99.90;;;;;;5063920;28;19976;-76
2023/12/18 01:22:27;;;;;;;;;;;1.90;99.90;;;;;;5064437;28;19986;-75
2023/12/18 01:24:53;;;;;;;;;;;1.90;99.90;;;;;;5066167;28;20378;-76
2023/12/18 01:27:20;;;;;;;;;;;1.90;99.90;;;;;;5063566;28;20032;-76
2023/12/18 01:29:46;;;;;;;;;;;1.90;99.90;;;;;;5061148;28;20048;-75
2023/12/18 01:32:14;;;;;;;;;;;1.90;99.90;;;;;;5066854;28;20523;-75
2023/12/18 01:34:40;;;;;;;;;;;1.90;99.90;;;;;;5063952;28;20006;-75
2023/12/18 01:37:07;;;;;;;;;;;1.80;99.90;;;;;;5064130;28;19975;-75
2023/12/18 01:39:34;;;;;;;;;;;1.80;99.90;;;;;;5063439;28;20061;-75
2023/12/18 01:42:01;;;;;;;;;;;1.80;99.90;;;;;;5063036;28;20010;-76
2023/12/18 01:44:27;;;;;;;;;;;1.80;99.90;;;;;;5064396;28;21282;-75
2023/12/18 01:46:54;;;;;;;;;;;1.80;99.90;;;;;;5062936;28;20618;-76
2023/12/18 01:49:22;;;;;;;;;;;1.80;99.90;;;;;;5064362;28;20002;-76
2023/12/18 01:51:50;;;;;;;;;;;1.80;99.90;;;;;;5062737;28;19987;-75
2023/12/18 01:54:18;;;;;;;;;;;1.80;99.90;;;;;;5061139;28;19979;-76
2023/12/18 01:56:45;;;;;;;;;;;1.80;99.90;;;;;;5065416;28;19979;-75
2023/12/18 01:59:11;;;;;;;;;;;1.80;99.90;;;;;;5064244;28;20350;-76
2023/12/18 02:01:38;;;;;;;;;;;1.80;99.90;;;;;;5064245;28;20017;-75
2023/12/18 02:04:05;;;;;;;;;;;1.80;99.90;;;;;;5065124;28;20001;-76
2023/12/18 02:06:33;;;;;;;;;;;1.80;99.90;;;;;;5065157;28;19995;-76
2023/12/18 02:08:59;;;;;;;;;;;1.80;99.90;;;;;;5064537;28;20495;-76
2023/12/18 02:11:26;;;;;;;;;;;1.80;99.90;;;;;;5062680;28;20534;-76
2023/12/18 02:13:53;;;;;;;;;;;1.80;99.90;;;;;;5064480;28;20728;-76
2023/12/18 02:16:19;;;;;;;;;;;1.80;99.90;;;;;;5063439;28;20006;-75
2023/12/18 02:18:47;;;;;;;;;;;1.80;99.90;;;;;;5064198;28;20002;-76
2023/12/18 02:21:18;;;;;;;;;;;1.70;99.90;;;;;;5065722;28;19982;-76
2023/12/18 02:23:46;;;;;;;;;;;1.70;99.90;;;;;;5067623;28;20068;-76
2023/12/18 02:26:13;;;;;;;;;;;1.70;99.90;;;;;;5070025;28;20003;-75
2023/12/18 02:28:39;;;;;;;;;;;1.70;99.90;;;;;;5065906;28;19995;-77
2023/12/18 02:31:08;;;;;;;;;;;1.70;99.90;;;;;;5067708;28;20087;-75
2023/12/18 02:33:36;;;;;;;;;;;2.00;99.90;;;;;;5067478;28;19984;-76
2023/12/18 02:36:02;;;;;;;;;;;1.70;99.90;;;;;;5068466;28;19979;-75
2023/12/18 02:38:29;;;;;;;;;;;1.70;99.90;;;;;;5065374;28;19999;-76
2023/12/18 02:40:57;;;;;;;;;;;1.70;99.90;;;;;;5065671;28;19985;-76
2023/12/18 02:43:23;;;;;;;;;;;1.60;99.90;;;;;;5065252;28;19983;-75
2023/12/18 02:45:50;;;;;;;;;;;1.70;99.90;;;;;;5064897;28;20562;-76
2023/12/18 02:48:16;;;;;;;;;;;1.60;99.90;;;;;;5065716;28;19995;-75
2023/12/18 02:50:43;;;;;;;;;;;1.60;99.90;;;;;;5068484;28;20195;-76
2023/12/18 02:53:09;;;;;;;;;;;1.60;99.90;;;;;;5065860;28;20464;-75
2023/12/18 02:55:36;;;;;;;;;;;1.60;99.90;;;;;;5063878;28;20423;-75
2023/12/18 02:58:04;;;;;;;;;;;1.60;99.90;;;;;;5066864;28;19995;-76
2023/12/18 03:00:30;;;;;;;;;;;1.60;99.90;;;;;;5063090;28;20000;-76
2023/12/18 03:02:57;;;;;;;;;;;1.60;99.90;;;;;;5068292;28;19990;-76
2023/12/18 03:05:24;;;;;;;;;;;1.60;99.90;;;;;;5066269;28;19991;-76
2023/12/18 03:07:50;;;;;;;;;;;1.60;99.90;;;;;;5066089;28;20060;-76
2023/12/18 03:10:17;;;;;;;;;;;1.60;99.90;;;;;;5066443;28;19983;-75
2023/12/18 03:12:43;;;;;;;;;;;1.60;99.90;;;;;;5064053;28;19979;-76
2023/12/18 03:15:11;;;;;;;;;;;1.60;99.90;;;;;;5065573;28;19980;-76
2023/12/18 03:17:38;;;;;;;;;;;1.60;99.90;;;;;;5067808;28;20463;-76
2023/12/18 03:20:06;;;;;;;;;;;1.60;99.90;;;;;;5066430;28;19987;-76
2023/12/18 03:22:32;;;;;;;;;;;1.60;99.90;;;;;;5063066;28;19997;-76
2023/12/18 03:24:59;;;;;;;;;;;1.60;99.90;;;;;;5067340;28;19979;-76
2023/12/18 03:27:26;;;;;;;;;;;1.60;99.90;;;;;;5064327;28;20078;-76
2023/12/18 03:29:52;;;;;;;;;;;1.60;99.90;;;;;;5064695;28;19987;-77
2023/12/18 03:32:20;;;;;;;;;;;1.50;99.90;;;;;;5064403;28;20612;-75
2023/12/18 03:34:46;;;;;;;;;;;1.60;99.90;;;;;;5064765;28;19976;-76
2023/12/18 03:37:13;;;;;;;;;;;1.60;99.90;;;;;;5064582;28;19979;-75
2023/12/18 03:39:39;;;;;;;;;;;1.60;99.90;;;;;;5065715;28;19998;-75
2023/12/18 03:42:06;;;;;;;;;;;1.60;99.90;;;;;;5064326;28;19975;-76
2023/12/18 03:44:33;;;;;;;;;;;1.60;99.90;;;;;;5064425;28;20368;-76
2023/12/18 03:46:59;;;;;;;;;;;1.60;99.90;;;;;;5061741;28;19995;-76
2023/12/18 03:49:27;;;;;;;;;;;1.60;99.90;;;;;;5065040;28;19997;-75
2023/12/18 03:51:53;;;;;;;;;;;1.60;99.90;;;;;;5064730;28;19982;-76
2023/12/18 03:54:20;;;;;;;;;;;1.50;99.90;;;;;;5064523;28;19987;-77
2023/12/18 03:56:46;;;;;;;;;;;1.60;99.90;;;;;;5065003;28;19975;-76
2023/12/18 03:59:13;;;;;;;;;;;1.50;99.90;;;;;;5064336;28;20372;-75
2023/12/18 04:01:40;;;;;;;;;;;1.60;99.90;;;;;;5063282;28;20053;-76
2023/12/18 04:04:07;;;;;;;;;;;1.50;99.90;;;;;;5066564;28;20322;-76
2023/12/18 04:06:35;;;;;;;;;;;1.50;99.90;;;;;;5065779;28;20611;-76
2023/12/18 04:09:02;;;;;;;;;;;1.50;99.90;;;;;;5065241;28;20042;-76
2023/12/18 04:11:28;;;;;;;;;;;1.50;99.90;;;;;;5065069;28;19983;-76
2023/12/18 04:13:55;;;;;;;;;;;1.50;99.90;;;;;;5063000;28;20335;-76
2023/12/18 04:16:22;;;;;;;;;;;1.50;99.90;;;;;;5062950;28;20004;-77
2023/12/18 04:18:49;;;;;;;;;;;1.50;99.90;;;;;;5062050;28;20483;-75
2023/12/18 04:21:16;;;;;;;;;;;1.50;99.90;;;;;;5062683;28;19990;-76
2023/12/18 04:23:44;;;;;;;;;;;1.50;99.90;;;;;;5065181;28;20448;-76
2023/12/18 04:26:10;;;;;;;;;;;1.50;99.90;;;;;;5067709;28;19987;-75
2023/12/18 04:28:37;;;;;;;;;;;1.50;99.90;;;;;;5066853;28;20377;-75
2023/12/18 04:31:03;;;;;;;;;;;1.50;99.90;;;;;;5065174;28;20002;-76
2023/12/18 04:33:30;;;;;;;;;;;1.50;99.90;;;;;;5061333;28;19983;-76
2023/12/18 04:35:56;;;;;;;;;;;1.50;99.90;;;;;;5062582;28;20484;-76
2023/12/18 04:38:23;;;;;;;;;;;1.50;99.90;;;;;;5065498;28;20002;-76
2023/12/18 04:40:51;;;;;;;;;;;1.50;99.90;;;;;;5067097;28;20085;-75
2023/12/18 04:43:18;;;;;;;;;;;1.50;99.90;;;;;;5062672;28;19979;-75
2023/12/18 04:45:44;;;;;;;;;;;1.50;99.90;;;;;;5059942;28;20022;-75
2023/12/18 04:48:11;;;;;;;;;;;1.50;99.90;;;;;;5064362;28;20396;-75
2023/12/18 04:50:37;;;;;;;;;;;1.50;99.90;;;;;;5065029;28;19975;-75
2023/12/18 04:53:04;;;;;;;;;;;1.40;99.90;;;;;;5065201;28;20243;-76
2023/12/18 04:55:30;;;;;;;;;;;1.40;99.90;;;;;;5062735;28;20460;-76
2023/12/18 04:57:58;;;;;;;;;;;1.40;99.90;;;;;;5063592;28;20000;-76
2023/12/18 05:00:25;;;;;;;;;;;1.40;99.90;;;;;;5059585;28;19986;-76
2023/12/18 05:02:51;;;;;;;;;;;1.40;99.90;;;;;;5059647;28;19980;-76
2023/12/18 05:05:18;;;;;;;;;;;1.40;99.90;;;;;;5061116;28;19979;-75
2023/12/18 05:07:44;;;;;;;;;;;1.40;99.90;;;;;;5061991;28;20465;-76
2023/12/18 05:10:11;;;;;;;;;;;1.40;99.90;;;;;;5063692;28;20349;-75
2023/12/18 05:12:37;;;;;;;;;;;1.40;99.90;;;;;;5062006;28;19983;-76
2023/12/18 05:15:06;;;;;;;;;;;1.40;99.90;;;;;;5060906;28;19976;-76
2023/12/18 05:17:33;;;;;;;;;;;1.40;99.90;;;;;;5061832;28;20086;-76
2023/12/18 05:19:59;;;;;;;;;;;1.40;99.90;;;;;;5061531;28;19983;-76
2023/12/18 05:22:26;;;;;;;;;;;1.30;99.90;;;;;;5061786;28;19975;-76
2023/12/18 05:24:52;;;;;;;;;;;1.30;99.90;;;;;;5060769;28;19991;-75
2023/12/18 05:27:20;;;;;;;;;;;1.30;99.90;;;;;;5061649;28;19992;-75
2023/12/18 05:29:46;;;;;;;;;;;1.30;99.90;;;;;;5060920;28;20659;-75
2023/12/18 05:32:14;;;;;;;;;;;1.30;99.90;;;;;;5061387;28;20426;-75
2023/12/18 05:34:41;;;;;;;;;;;1.30;99.90;;;;;;5060661;28;19987;-75
2023/12/18 05:37:07;;;;;;;;;;;1.30;99.90;;;;;;5061095;28;19975;-76
2023/12/18 05:39:34;;;;;;;;;;;1.30;99.90;;;;;;5061595;28;20381;-76
2023/12/18 05:42:00;;;;;;;;;;;1.30;99.90;;;;;;5058289;28;19975;-75
2023/12/18 05:44:27;;;;;;;;;;;1.30;99.90;;;;;;5060912;28;19979;-75
2023/12/18 05:46:54;;;;;;;;;;;1.30;99.90;;;;;;5064482;28;19995;-75
2023/12/18 05:49:21;;;;;;;;;;;1.30;99.90;;;;;;5062793;28;19996;-76
2023/12/18 05:51:48;;;;;;;;;;;1.20;99.90;;;;;;5059641;28;19979;-75
2023/12/18 05:54:14;;;;;;;;;;;1.20;99.90;;;;;;5058132;28;19983;-74
2023/12/18 05:56:41;;;;;;;;;;;1.20;99.90;;;;;;5064253;28;19972;-75
2023/12/18 05:59:07;;;;;;;;;;;1.20;99.90;;;;;;5062429;28;20466;-75
2023/12/18 06:01:34;;;;;;;;;;;1.20;99.90;;;;;;5065942;28;19999;-76
2023/12/18 06:04:00;;;;;;;;;;;1.20;99.90;;;;;;5070350;28;19983;-75
2023/12/18 06:06:29;;;;;;;;;;;1.20;99.90;;;;;;5067280;28;20025;-76
2023/12/18 06:08:55;;;;;;;;;;;1.20;99.90;;;;;;5065595;28;19999;-75
2023/12/18 06:11:22;;;;;;;;;;;1.20;99.90;;;;;;5067943;28;19975;-75
2023/12/18 06:13:48;;;;;;;;;;;1.20;99.90;;;;;;5065430;28;20697;-75
2023/12/18 06:16:15;;;;;;;;;;;1.10;99.90;;;;;;5062644;28;20022;-75
2023/12/18 06:18:42;;;;;;;;;;;1.10;99.90;;;;;;5065260;28;19995;-75
2023/12/18 06:21:08;;;;;;;;;;;1.10;99.90;;;;;;5065956;28;19979;-75
2023/12/18 06:23:36;;;;;;;;;;;1.10;99.90;;;;;;5064035;28;19976;-77
2023/12/18 06:26:04;;;;;;;;;;;1.10;99.90;;;;;;5065059;28;20196;-75
2023/12/18 06:28:31;;;;;;;;;;;1.10;99.90;;;;;;5065064;28;19995;-75
2023/12/18 06:30:58;;;;;;;;;;;1.10;99.90;;;;;;5063825;28;19998;-75
2023/12/18 06:33:25;;;;;;;;;;;1.10;99.90;;;;;;5063884;28;20080;-74
2023/12/18 06:35:51;;;;;;;;;;;1.10;99.90;;;;;;5066270;28;19980;-76
2023/12/18 06:38:18;;;;;;;;;;;1.10;99.90;;;;;;5066444;28;19939;-74
2023/12/18 06:40:46;;;;;;;;;;;1.00;99.90;;;;;;5064899;28;19932;-75
2023/12/18 06:43:12;;;;;;;;;;;0.90;99.90;;;;;;5066624;28;19932;-76
2023/12/18 06:45:39;;;;;;;;;;;0.90;99.90;;;;;;5066315;28;19932;-75
2023/12/18 06:48:06;;;;;;;;;;;1.00;99.90;;;;;;5065416;28;19929;-77
2023/12/18 06:50:32;;;;;;;;;;;0.90;99.90;;;;;;5063749;28;20481;-76
2023/12/18 06:53:00;;;;;;;;;;;1.00;99.90;;;;;;5064886;28;20394;-75
2023/12/18 06:55:27;;;;;;;;;;;0.90;99.90;;;;;;5066019;28;20148;-77
2023/12/18 06:57:55;;;;;;;;;;;1.00;99.90;;;;;;5066400;28;20458;-76
2023/12/18 07:00:22;;;;;;;;;;;1.00;99.90;;;;;;5062855;28;19944;-75
2023/12/18 07:02:48;;;;;;;;;;;1.00;99.90;;;;;;5063959;28;20417;-75
2023/12/18 07:05:16;;;;;;;;;;;1.00;99.90;;;;;;5066672;28;19932;-75
2023/12/18 07:07:44;;;;;;;;;;;1.00;99.90;;;;;;5062517;28;21273;-75
2023/12/18 07:10:10;;;;;;;;;;;1.00;99.90;;;;;;5068075;28;20831;-75
2023/12/18 07:12:37;;;;;;;;;;;1.00;99.90;;;;;;5067931;28;19986;-75
2023/12/18 07:15:06;;;;;;;;;;;1.00;99.90;;;;;;5066552;28;19932;-76
2023/12/18 07:17:33;;;;;;;;;;;1.00;99.90;;;;;;5065816;28;20353;-74
2023/12/18 07:19:59;;;;;;;;;;;1.00;99.90;;;;;;5064753;28;19936;-75
2023/12/18 07:22:26;;;;;;;;;;;0.90;99.90;;;;;;5066231;28;19935;-74
2023/12/18 07:24:53;;;;;;;;;;;1.00;99.90;;;;;;5066146;28;19929;-74
2023/12/18 07:27:19;;;;;;;;;;;1.00;99.90;;;;;;5066868;28;19932;-74
2023/12/18 07:29:46;;;;;;;;;;;1.00;99.90;;;;;;5063095;28;19928;-72
2023/12/18 07:32:14;;;;;;;;;;;1.00;99.90;;;;;;5067214;28;19933;-74
2023/12/18 07:34:40;;;;;;;;;;;1.10;99.90;;;;;;5065507;28;19940;-73
2023/12/18 07:37:07;;;;;;;;;;;1.20;99.90;;;;;;5062962;28;19931;-75
2023/12/18 07:39:33;;;;;;;;;;;1.20;99.90;;;;;;5065564;28;19936;-75
2023/12/18 07:42:01;;;;;;;;;;;1.20;99.90;;;;;;5065003;28;19928;-75
2023/12/18 07:44:27;;;;;;;;;;;1.20;99.90;;;;;;5063819;28;20579;-74
2023/12/18 07:46:54;;;;;;;;;;;1.30;99.90;;;;;;5062348;28;19932;-74
2023/12/18 07:49:22;;;;;;;;;;;1.30;99.90;;;;;;5062609;28;19933;-74
2023/12/18 07:51:49;;;;;;;;;;;1.30;99.90;;;;;;5064281;28;19935;-75
2023/12/18 07:54:15;;;;;;;;;;;1.40;99.90;;;;;;5062580;28;19932;-73
2023/12/18 07:56:42;;;;;;;;;;;1.40;99.90;;;;;;5063526;28;19939;-75
2023/12/18 07:59:08;;;;;;;;;;;1.40;99.90;;;;;;5062513;28;19929;-73
2023/12/18 08:01:35;;;;;;;;;;;1.40;99.90;;;;;;5062664;28;19939;-74
2023/12/18 08:04:01;;;;;;;;;;;1.50;99.90;;;;;;5064231;28;20039;-73
2023/12/18 08:06:29;;;;;;;;;;;1.50;99.90;;;;;;5064211;28;19932;-75
2023/12/18 08:08:56;;;;;;;;;;;1.50;99.90;;;;;;5064403;28;19928;-72
2023/12/18 08:11:22;;;;;;;;;;;1.50;99.90;;;;;;5065090;28;19929;-74
2023/12/18 08:13:49;;;;;;;;;;;1.50;99.90;;;;;;5063137;28;19936;-71
2023/12/18 08:16:15;;;;;;;;;;;1.60;99.90;;;;;;5065364;28;19932;-74
2023/12/18 08:18:42;;;;;;;;;;;1.50;99.90;;;;;;5063408;28;19939;-74
2023/12/18 08:21:11;;;;;;;;;;;1.50;99.90;;;;;;5060500;28;20391;-73
2023/12/18 08:23:39;;;;;;;;;;;1.50;99.90;;;;;;5062602;28;19932;-75
2023/12/18 08:26:06;;;;;;;;;;;1.50;99.90;;;;;;5065123;28;19936;-73
2023/12/18 08:28:32;;;;;;;;;;;1.50;99.90;;;;;;5065851;28;19929;-74
2023/12/18 08:30:59;;;;;;;;;;;1.60;99.90;;;;;;5062915;28;19936;-75
2023/12/18 08:33:25;;;;;;;;;;;1.60;99.90;;;;;;5063765;28;20368;-74
2023/12/18 08:35:52;;;;;;;;;;;1.60;99.90;;;;;;5062409;28;19944;-75
2023/12/18 08:38:18;;;;;;;;;;;1.50;99.90;;;;;;5062770;28;19940;-74
2023/12/18 08:40:47;;;;;;;;;;;1.60;99.90;;;;;;5064315;28;19986;-73
2023/12/18 08:43:14;;;;;;;;;;;1.60;99.90;;;;;;5059453;28;19929;-75
2023/12/18 08:45:41;;;;;;;;;;;1.60;99.90;;;;;;5060814;28;20380;-75
2023/12/18 08:48:08;;;;;;;;;;;1.50;99.90;;;;;;5058179;28;20290;-74
2023/12/18 08:50:35;;;;;;;;;;;1.60;99.90;;;;;;5060140;28;19935;-75
2023/12/18 08:53:01;;;;;;;;;;;1.50;99.90;;;;;;5060117;28;19933;-74
2023/12/18 08:55:28;;;;;;;;;;;1.60;99.90;;;;;;5059220;28;19928;-75
2023/12/18 08:57:55;;;;;;;;;;;1.50;99.90;;;;;;5062342;28;19928;-74
2023/12/18 09:00:22;;;;;;;;;;;1.50;99.90;;;;;;5058379;28;19930;-75
2023/12/18 09:02:48;;;;;;;;;;;1.60;99.90;;;;;;5046697;28;19925;-75
2023/12/18 09:05:14;;;;;;;;;;;1.50;99.90;;;;;;5036014;28;19935;-73
2023/12/18 09:07:41;;;;;;;;;;;1.60;99.90;;;;;;5041814;28;19937;-74
2023/12/18 09:10:08;;;;;;;;;;;1.60;99.90;;;;;;5039673;28;19929;-74
2023/12/18 09:12:34;;;;;;;;;;;1.60;99.90;;;;;;5038120;28;19929;-74
2023/12/18 09:15:02;;;;;;;;;;;1.60;99.90;;;;;;5038752;28;19951;-76
2023/12/18 09:17:29;;;;;;;;;;;1.60;99.90;;;;;;5040641;28;19928;-75
2023/12/18 09:19:56;;;;;;;;;;;1.50;99.90;;;;;;5040450;28;20748;-73
2023/12/18 09:22:22;;;;;;;;;;;1.50;99.90;;;;;;5036254;28;19955;-75
2023/12/18 09:24:49;;;;;;;;;;;1.50;99.90;;;;;;5039098;28;20140;-73
2023/12/18 09:27:15;;;;;;;;;;;1.50;99.90;;;;;;5038130;28;19933;-74
2023/12/18 09:29:42;;;;;;;;;;;1.60;99.90;;;;;;5038128;28;19950;-74
2023/12/18 09:32:10;;;;;;;;;;;1.50;99.90;;;;;;5039143;28;19928;-73
2023/12/18 09:34:36;;;;;;;;;;;1.50;99.90;;;;;;5040181;28;20390;-75
2023/12/18 09:37:03;;;;;;;;;;;1.50;99.90;;;;;;5038482;28;19928;-74
2023/12/18 09:39:30;;;;;;;;;;;1.50;99.90;;;;;;5035861;28;19929;-75
2023/12/18 09:42:00;;;;;;;;;;;1.50;99.90;;;;;;5039033;28;19955;-74
2023/12/18 09:44:27;;;;;;;;;;;1.50;99.90;;;;;;5037069;28;19955;-74
2023/12/18 09:46:53;;;;;;;;;;;1.50;99.90;;;;;;5041578;28;20486;-75
2023/12/18 09:49:21;;;;;;;;;;;1.50;99.90;;;;;;5037646;28;20362;-75
2023/12/18 09:51:49;;;;;;;;;;;1.60;99.90;;;;;;5033707;28;19936;-75
2023/12/18 09:54:16;;;;;;;;;;;1.60;99.90;;;;;;5036243;28;19933;-73
2023/12/18 09:56:43;;;;;;;;;;;1.50;99.90;;;;;;5039911;28;20405;-74
2023/12/18 09:59:10;;;;;;;;;;;1.60;99.90;;;;;;5039327;28;20063;-73
2023/12/18 10:01:38;;;;;;;;;;;1.60;99.90;;;;;;5041926;28;19935;-74
2023/12/18 10:04:06;;;;;;;;;;;1.60;99.90;;;;;;5063146;28;19932;-73
2023/12/18 10:06:34;;;;;;;;;;;1.60;99.90;;;;;;5059446;28;20567;-74
2023/12/18 10:09:03;;;;;;;;;;;1.60;99.90;;;;;;5062955;28;20389;-74
2023/12/18 10:11:29;;;;;;;;;;;1.60;99.90;;;;;;5061437;28;19929;-76
2023/12/18 10:13:56;;;;;;;;;;;1.60;99.90;;;;;;5059437;28;19929;-74
2023/12/18 10:16:23;;;;;;;;;;;1.60;99.90;;;;;;5061588;28;19928;-76
2023/12/18 10:18:50;;;;;;;;;;;1.60;99.90;;;;;;5059951;28;19950;-75
2023/12/18 10:21:21;;;;;;;;;;;1.60;99.90;;;;;;5061365;28;20437;-76
2023/12/18 10:23:49;;;;;;;;;;;1.60;99.90;;;;;;5055866;28;19928;-76
2023/12/18 10:26:16;;;;;;;;;;;1.60;99.90;;;;;;5060624;28;19932;-76
2023/12/18 10:28:42;;;;;;;;;;;1.70;99.90;;;;;;5059630;28;19936;-76
2023/12/18 10:31:09;;;;;;;;;;;1.70;99.90;;;;;;5061217;28;19954;-76
2023/12/18 10:33:35;;;;;;;;;;;1.60;99.90;;;;;;5060655;28;19928;-76
2023/12/18 10:36:03;;;;;;;;;;;1.70;99.90;;;;;;5059850;28;20396;-76
2023/12/18 10:38:31;;;;;;;;;;;1.70;99.90;;;;;;5060108;28;19932;-76
2023/12/18 10:41:00;;;;;;;;;;;1.70;99.90;;;;;;5060141;28;19935;-75
2023/12/18 10:43:28;;;;;;;;;;;1.70;99.90;;;;;;5062855;28;19948;-77
2023/12/18 10:45:59;;;;;;;;;;;1.70;99.90;;;;;;5065246;28;20453;-77
2023/12/18 10:48:26;;;;;;;;;;;1.80;99.90;;;;;;5066386;28;19929;-76
2023/12/18 10:50:55;;;;;;;;;;;1.80;99.90;;;;;;5067609;28;20055;-77
2023/12/18 10:53:23;;;;;;;;;;;1.80;99.90;;;;;;5064261;28;20397;-76
2023/12/18 10:55:50;;;;;;;;;;;2.10;99.90;;;;;;5064519;28;19931;-75
2023/12/18 10:58:18;;;;;;;;;;;1.80;99.90;;;;;;5065941;28;19928;-76
2023/12/18 11:00:45;;;;;;;;;;;1.80;99.90;;;;;;5064041;28;19932;-75
2023/12/18 11:03:12;;;;;;;;;;;1.90;99.90;;;;;;5067888;28;19947;-76
2023/12/18 11:05:40;;;;;;;;;;;1.90;99.90;;;;;;5065107;28;19932;-76
2023/12/18 11:08:06;;;;;;;;;;;1.90;99.90;;;;;;5065830;28;19931;-76
2023/12/18 11:10:33;;;;;;;;;;;1.90;99.90;;;;;;5065047;28;19929;-76
2023/12/18 11:13:06;;;;;;;;;;;1.90;99.90;;;;;;5066023;28;19929;-76
2023/12/18 11:15:37;;;;;;;;;;;1.90;99.90;;;;;;5062036;28;19928;-76
2023/12/18 11:18:10;;;;;;;;;;;2.00;99.90;;;;;;5065137;28;19936;-75
2023/12/18 11:20:37;;;;;;;;;;;2.00;99.90;;;;;;5064186;28;19940;-77
2023/12/18 11:23:05;;;;;;;;;;;2.00;99.90;;;;;;5059800;28;19939;-74
2023/12/18 11:25:31;;;;;;;;;;;2.00;99.90;;;;;;5063790;28;20019;-77
2023/12/18 11:28:01;;;;;;;;;;;2.00;99.90;;;;;;5065596;28;19932;-78
2023/12/18 11:30:28;;;;;;;;;;;2.00;99.90;;;;;;5064019;28;19928;-78
2023/12/18 11:32:56;;;;;;;;;;;2.00;99.90;;;;;;5064811;28;19928;-76
2023/12/18 11:35:27;;;;;;;;;;;2.00;99.90;;;;;;5066600;28;20306;-77
2023/12/18 11:37:58;;;;;;;;;;;2.10;99.90;;;;;;5062840;28;19928;-76
2023/12/18 11:40:35;;;;;;;;;;;2.00;99.90;;;;;;5061223;28;19928;-76
2023/12/18 11:43:02;;;;;;;;;;;2.10;99.90;;;;;;5063200;28;20007;-77
2023/12/18 11:45:28;;;;;;;;;;;2.10;99.90;;;;;;5063432;28;20641;-78
2023/12/18 11:47:58;;;;;;;;;;;2.10;99.90;;;;;;5061269;28;19989;-77
2023/12/18 11:50:25;;;;;;;;;;;2.10;99.90;;;;;;5064334;28;19929;-75
2023/12/18 11:52:54;;;;;;;;;;;2.10;99.90;;;;;;5061724;28;19929;-76
2023/12/18 11:55:35;;;;;;;;;;;2.10;99.90;;;;;;5064401;28;19928;-76
2023/12/18 11:58:02;;;;;;;;;;;2.20;99.90;;;;;;5059582;28;20394;-77
2023/12/18 12:00:29;;;;;;;;;;;2.20;99.90;;;;;;5063600;28;19929;-76
2023/12/18 12:02:58;;;;;;;;;;;2.20;99.90;;;;;;5063945;28;19929;-76
2023/12/18 12:05:24;;;;;;;;;;;2.20;99.90;;;;;;5063675;28;19928;-75
2023/12/18 12:07:51;;;;;;;;;;;2.20;99.90;;;;;;5062110;28;20334;-78
2023/12/18 12:10:18;;;;;;;;;;;2.30;99.90;;;;;;5064395;28;20055;-75
2023/12/18 12:12:44;;;;;;;;;;;2.30;99.90;;;;;;5062672;28;19928;-67
2023/12/18 12:15:11;;;;;;;;;;;2.30;99.90;;;;;;5064081;28;20780;-67
2023/12/18 12:17:38;;;;;;;;;;;2.30;99.90;;;;;;5066324;28;19932;-67
2023/12/18 12:20:09;;;;;;;;;;;2.40;99.90;;;;;;5066725;28;19928;-68
2023/12/18 12:22:35;;;;;;;;;;;2.40;99.90;;;;;;5063243;28;19978;-67
2023/12/18 12:25:02;;;;;;;;;;;2.50;99.90;;;;;;5066423;28;19932;-67
2023/12/18 12:27:29;;;;;;;;;;;2.50;99.90;;;;;;5065988;28;20023;-66
2023/12/18 12:29:55;;;;;;;;;;;2.50;99.90;;;;;;5059330;28;19940;-67
2023/12/18 12:32:22;;;;;;;;;;;2.60;99.90;;;;;;5064940;28;19936;-67
2023/12/18 12:34:49;;;;;;;;;;;2.60;99.90;;;;;;5064228;28;20420;-67
2023/12/18 12:37:17;;;;;;;;;;;2.60;99.90;;;;;;5064244;28;19932;-67
2023/12/18 12:39:57;;;;;;;;;;;2.60;99.90;;;;;;5064533;28;19989;-67
2023/12/18 12:42:23;;;;;;;;;;;2.70;99.90;;;;;;5063568;28;19928;-68
2023/12/18 12:44:50;;;;;;;;;;;2.70;99.90;;;;;;5062553;28;20469;-67
2023/12/18 12:47:16;;;;;;;;;;;2.70;99.90;;;;;;5060353;28;20426;-67
2023/12/18 12:49:44;;;;;;;;;;;2.70;99.90;;;;;;5062841;28;19936;-68
2023/12/18 12:52:10;;;;;;;;;;;2.80;99.90;;;;;;5063774;28;20416;-67
2023/12/18 12:54:38;;;;;;;;;;;2.80;99.90;;;;;;5062416;28;19928;-67
2023/12/18 12:57:05;;;;;;;;;;;2.80;99.90;;;;;;5062069;28;19936;-67
2023/12/18 12:59:31;;;;;;;;;;;2.80;99.90;;;;;;5060901;28;19932;-67
2023/12/18 13:01:58;;;;;;;;;;;2.90;99.90;;;;;;5064015;28;19974;-67
2023/12/18 13:04:25;;;;;;;;;;;2.90;99.90;;;;;;5063655;28;19928;-69
2023/12/18 13:06:51;;;;;;;;;;;3.00;99.90;;;;;;5059980;28;20019;-67
2023/12/18 13:09:18;;;;;;;;;;;3.00;99.90;;;;;;5060959;28;20382;-68
2023/12/18 13:11:46;;;;;;;;;;;3.00;99.90;;;;;;5063888;28;19973;-67
2023/12/18 13:14:12;;;;;;;;;;;3.10;99.90;;;;;;5063449;28;19939;-67
2023/12/18 13:16:39;;;;;;;;;;;3.10;99.90;;;;;;5062386;28;20041;-67
2023/12/18 13:19:05;;;;;;;;;;;3.10;99.90;;;;;;5061480;28;20417;-67
2023/12/18 13:21:32;;;;;;;;;;;3.20;99.90;;;;;;5064001;28;19935;-67
2023/12/18 13:23:58;;;;;;;;;;;3.20;99.90;;;;;;5065601;28;20009;-68
2023/12/18 13:26:25;;;;;;;;;;;3.20;99.90;;;;;;5065153;28;20288;-67
2023/12/18 13:28:53;;;;;;;;;;;3.20;99.90;;;;;;5063134;28;19955;-67
2023/12/18 13:31:19;;;;;;;;;;;3.20;99.90;;;;;;5065167;28;20390;-67
2023/12/18 13:33:46;;;;;;;;;;;3.20;99.90;;;;;;5064306;28;20386;-67
2023/12/18 13:36:13;;;;;;;;;;;3.30;99.90;;;;;;5063020;28;19928;-67
2023/12/18 13:38:40;;;;;;;;;;;3.30;99.90;;;;;;5062284;28;19932;-67
2023/12/18 13:41:06;;;;;;;;;;;3.40;99.90;;;;;;5065269;28;20023;-66
2023/12/18 13:43:33;;;;;;;;;;;3.40;99.90;;;;;;5064350;28;19935;-67
2023/12/18 13:46:01;;;;;;;;;;;3.50;99.90;;;;;;5059842;28;19929;-67
2023/12/18 13:48:27;;;;;;;;;;;3.60;99.90;;;;;;5064473;28;20359;-67
2023/12/18 13:50:54;;;;;;;;;;;3.70;99.90;;;;;;5063260;28;19959;-67
2023/12/18 13:53:20;;;;;;;;;;;3.70;99.90;;;;;;5063017;28;20000;-67
2023/12/18 13:55:47;;;;;;;;;;;3.80;99.90;;;;;;5060356;28;20411;-68
2023/12/18 13:58:14;;;;;;;;;;;3.90;99.90;;;;;;5066452;28;19959;-67
2023/12/18 14:00:42;;;;;;;;;;;4.00;99.90;;;;;;5063319;28;19962;-66
2023/12/18 14:03:10;;;;;;;;;;;4.00;99.90;;;;;;5064617;28;19943;-67
2023/12/18 14:05:37;;;;;;;;;;;4.10;99.90;;;;;;5061543;28;19939;-68
2023/12/18 14:08:03;;;;;;;;;;;4.20;99.90;;;;;;5064252;28;19933;-68
2023/12/18 14:10:30;;;;;;;;;;;4.30;99.90;;;;;;5060966;28;19959;-67
2023/12/18 14:12:56;;;;;;;;;;;4.30;99.90;;;;;;5060687;28;19945;-67
2023/12/18 14:15:23;;;;;;;;;;;4.40;99.90;;;;;;5060569;28;20518;-68
2023/12/18 14:17:49;;;;;;;;;;;4.30;99.90;;;;;;5066473;28;19963;-67
2023/12/18 14:20:17;;;;;;;;;;;4.40;99.90;;;;;;5068049;28;19943;-67
2023/12/18 14:22:44;;;;;;;;;;;4.40;99.90;;;;;;5064474;28;20473;-67
2023/12/18 14:25:10;;;;;;;;;;;4.40;99.90;;;;;;5065843;28;20695;-67
2023/12/18 14:27:37;;;;;;;;;;;4.40;99.90;;;;;;5067262;28;19973;-68
2023/12/18 14:30:04;;;;;;;;;;;4.30;99.90;;;;;;5065847;28;20239;-67